Terminal Aerodrome Forecast
Issued by NWS Louisville, KY

Home | Current Version | Previous Version | Text Only | Print | Product List | Glossary On
Versions: 1 2 3 4 5 6 7 8 9 10 11 12
000
FTUS43 KLMK 202300
TAFLEX
TAF
KLEX 202327Z 2100/2124 26007KT P6SM SKC
     FM210400 VRB03KT P6SM SKC
     FM211600 09006KT P6SM SKC=

USA.gov is the U.S. government's official web portal to all federal, state and local government web resources and services.